createdAt,value
2022-09-27T00:00:02.142Z,315
2022-09-27T00:02:09.206Z,315
2022-09-27T00:04:14.929Z,315
2022-09-27T00:06:20.259Z,315
2022-09-27T00:08:26.126Z,315
2022-09-27T00:10:31.867Z,315
2022-09-27T00:12:37.278Z,315
2022-09-27T00:14:42.811Z,315
2022-09-27T00:16:48.529Z,315
2022-09-27T00:18:53.882Z,315
2022-09-27T00:20:59.365Z,315
2022-09-27T00:23:05.142Z,315
2022-09-27T00:25:10.394Z,315
2022-09-27T00:27:18.868Z,315
2022-09-27T00:29:24.178Z,315
2022-09-27T00:31:30.078Z,315
2022-09-27T00:33:35.975Z,315
2022-09-27T00:35:44.008Z,315
2022-09-27T00:37:49.288Z,315
2022-09-27T00:39:54.601Z,315
2022-09-27T00:42:00.309Z,315
2022-09-27T00:44:05.702Z,315
2022-09-27T00:46:12.266Z,315
2022-09-27T00:48:17.939Z,315
2022-09-27T00:50:23.729Z,315
2022-09-27T00:52:32.149Z,315
2022-09-27T00:54:37.935Z,315
2022-09-27T00:56:43.771Z,315
2022-09-27T00:58:50.710Z,315
2022-09-27T01:00:56.308Z,315
2022-09-27T01:03:02.356Z,315
2022-09-27T01:05:07.821Z,315
2022-09-27T01:07:13.196Z,315
2022-09-27T01:09:19.204Z,314
2022-09-27T01:11:24.760Z,315
2022-09-27T01:13:30.190Z,315
2022-09-27T01:15:35.783Z,315
2022-09-27T01:17:41.435Z,315
2022-09-27T01:19:50.034Z,315
2022-09-27T01:21:55.739Z,315
2022-09-27T01:24:01.735Z,315
2022-09-27T01:26:07.178Z,315
2022-09-27T01:28:12.297Z,315
2022-09-27T01:30:17.448Z,315
2022-09-27T01:32:22.808Z,315
2022-09-27T01:34:31.068Z,315
2022-09-27T01:36:36.346Z,315
2022-09-27T01:38:42.250Z,315
2022-09-27T01:40:48.141Z,315
2022-09-27T01:42:53.743Z,315
2022-09-27T01:44:59.100Z,315
2022-09-27T01:47:04.907Z,315
2022-09-27T01:49:10.453Z,315
2022-09-27T01:51:15.695Z,314
2022-09-27T01:53:24.124Z,315
2022-09-27T01:55:29.601Z,314
2022-09-27T01:57:36.823Z,314
2022-09-27T01:59:42.351Z,315
2022-09-27T02:01:48.219Z,314
2022-09-27T02:03:53.834Z,315
2022-09-27T02:05:59.039Z,315
2022-09-27T02:08:04.244Z,315
2022-09-27T02:10:09.638Z,314
2022-09-27T02:12:18.586Z,314
2022-09-27T02:14:25.916Z,314
2022-09-27T02:16:31.104Z,315
2022-09-27T02:18:36.474Z,315
2022-09-27T02:20:41.980Z,315
2022-09-27T02:22:47.389Z,315
2022-09-27T02:24:52.897Z,315
2022-09-27T02:26:58.783Z,315
2022-09-27T02:29:04.027Z,315
2022-09-27T02:31:09.745Z,315
2022-09-27T02:33:16.500Z,315
2022-09-27T02:35:22.893Z,315
2022-09-27T02:37:29.914Z,315
2022-09-27T02:39:35.544Z,314
2022-09-27T02:41:41.305Z,314
2022-09-27T02:43:48.807Z,315
2022-09-27T02:45:56.615Z,315
2022-09-27T02:48:07.911Z,314
2022-09-27T02:50:18.094Z,313
2022-09-27T02:52:25.700Z,314
2022-09-27T02:54:33.686Z,313
2022-09-27T02:56:41.124Z,315
2022-09-27T02:58:49.236Z,314
2022-09-27T03:01:00.445Z,315
2022-09-27T03:03:09.797Z,315
2022-09-27T03:05:17.808Z,315
2022-09-27T03:07:29.580Z,315
2022-09-27T03:09:38.267Z,315
2022-09-27T03:11:46.995Z,315
2022-09-27T03:14:13.611Z,315
2022-09-27T03:16:25.664Z,315
2022-09-27T03:18:33.156Z,315
2022-09-27T03:20:39.901Z,315
2022-09-27T03:22:51.433Z,315
2022-09-27T03:24:57.678Z,315
2022-09-27T03:27:04.415Z,315
2022-09-27T03:29:09.688Z,315
2022-09-27T03:31:15.759Z,315
2022-09-27T03:33:26.784Z,315
2022-09-27T03:35:35.835Z,315
2022-09-27T03:37:41.730Z,315
2022-09-27T03:39:52.257Z,315
2022-09-27T03:42:01.195Z,315
2022-09-27T03:44:06.701Z,315
2022-09-27T03:46:15.187Z,315
2022-09-27T03:48:28.059Z,315
2022-09-27T03:50:36.728Z,315
2022-09-27T03:52:42.914Z,315
2022-09-27T03:54:48.780Z,315
2022-09-27T03:56:57.022Z,315
2022-09-27T03:59:02.449Z,315
2022-09-27T04:01:08.334Z,301
2022-09-27T04:03:22.160Z,292
2022-09-27T04:05:33.858Z,291
2022-09-27T04:07:40.866Z,312
2022-09-27T04:09:47.837Z,303
2022-09-27T04:11:53.717Z,309
2022-09-27T04:14:00.156Z,307
2022-09-27T04:16:06.126Z,301
2022-09-27T04:18:12.607Z,303
2022-09-27T04:20:24.154Z,294
2022-09-27T04:22:32.915Z,310
2022-09-27T04:24:39.076Z,301
2022-09-27T04:26:46.915Z,315
2022-09-27T04:28:57.041Z,302
2022-09-27T04:31:02.815Z,308
2022-09-27T04:33:12.007Z,312
2022-09-27T04:35:24.088Z,310
2022-09-27T04:37:32.490Z,315
2022-09-27T04:39:40.471Z,309
2022-09-27T04:41:46.650Z,309
2022-09-27T04:43:59.302Z,309
2022-09-27T04:46:09.185Z,309
2022-09-27T04:48:18.656Z,312
2022-09-27T04:50:24.424Z,297
2022-09-27T04:52:30.706Z,286
2022-09-27T04:54:42.408Z,288
2022-09-27T04:56:48.721Z,293
2022-09-27T04:58:57.346Z,293
2022-09-27T05:01:06.166Z,293
2022-09-27T05:03:13.607Z,293
2022-09-27T05:05:19.809Z,301
2022-09-27T05:07:32.204Z,290
2022-09-27T05:09:38.315Z,291
2022-09-27T05:11:46.161Z,288
2022-09-27T05:13:53.125Z,291
2022-09-27T05:15:59.604Z,303
2022-09-27T05:18:05.937Z,312
2022-09-27T05:20:11.998Z,315
2022-09-27T05:22:18.087Z,315
2022-09-27T05:24:25.967Z,307
2022-09-27T05:26:32.091Z,307
2022-09-27T05:28:40.608Z,307
2022-09-27T05:30:46.542Z,308
2022-09-27T05:32:53.405Z,308
2022-09-27T05:35:01.810Z,307
2022-09-27T05:37:07.923Z,307
2022-09-27T05:39:15.988Z,307
2022-09-27T05:41:22.895Z,307
2022-09-27T05:43:31.824Z,307
2022-09-27T05:45:40.364Z,307
2022-09-27T05:47:46.858Z,307
2022-09-27T05:49:54.250Z,307
2022-09-27T05:52:00.517Z,307
2022-09-27T05:54:08.946Z,307
2022-09-27T05:56:15.468Z,307
2022-09-27T05:58:21.747Z,307
2022-09-27T06:00:27.955Z,307
2022-09-27T06:02:36.214Z,307
2022-09-27T06:04:45.290Z,307
2022-09-27T06:06:57.128Z,307
2022-09-27T06:09:03.648Z,307
2022-09-27T06:11:10.029Z,307
2022-09-27T06:13:16.261Z,307
2022-09-27T06:15:23.542Z,307
2022-09-27T06:17:32.376Z,307
2022-09-27T06:19:39.959Z,307
2022-09-27T06:21:46.182Z,307
2022-09-27T06:23:57.198Z,307
2022-09-27T06:26:03.405Z,307
2022-09-27T06:28:10.953Z,307
2022-09-27T06:30:31.288Z,306
2022-09-27T06:32:39.547Z,303
2022-09-27T06:34:48.867Z,307
2022-09-27T06:36:58.226Z,301
2022-09-27T06:39:04.614Z,301
2022-09-27T06:41:11.582Z,306
2022-09-27T06:43:21.916Z,301
2022-09-27T06:45:28.694Z,301
2022-09-27T06:47:35.145Z,301
2022-09-27T06:49:41.418Z,302
2022-09-27T06:51:47.883Z,303
2022-09-27T06:53:54.541Z,303
2022-09-27T06:56:00.757Z,303
2022-09-27T06:58:07.240Z,303
2022-09-27T07:00:14.890Z,303
2022-09-27T07:02:26.782Z,298
2022-09-27T07:04:33.455Z,294
2022-09-27T07:06:41.126Z,296
2022-09-27T07:08:51.676Z,296
2022-09-27T07:10:57.937Z,301
2022-09-27T07:13:04.302Z,301
2022-09-27T07:15:12.758Z,301
2022-09-27T07:17:18.873Z,307
2022-09-27T07:19:29.094Z,303
2022-09-27T07:21:36.669Z,304
2022-09-27T07:23:46.927Z,308
2022-09-27T07:25:53.469Z,295
2022-09-27T07:27:59.752Z,302
2022-09-27T07:30:08.182Z,301
2022-09-27T07:32:14.579Z,301
2022-09-27T07:34:24.469Z,301
2022-09-27T07:36:33.578Z,301
2022-09-27T07:38:40.853Z,301
2022-09-27T07:40:48.100Z,301
2022-09-27T07:42:54.607Z,301
2022-09-27T07:45:05.159Z,307
2022-09-27T07:47:15.777Z,307
2022-09-27T07:49:22.692Z,290
2022-09-27T07:51:31.474Z,303
2022-09-27T07:53:39.469Z,302
2022-09-27T07:55:46.354Z,296
2022-09-27T07:57:56.781Z,288
2022-09-27T08:00:02.891Z,308
2022-09-27T08:02:09.574Z,301
2022-09-27T08:04:19.142Z,296
2022-09-27T08:06:32.995Z,297
2022-09-27T08:08:42.077Z,310
2022-09-27T08:10:52.397Z,308
2022-09-27T08:12:59.076Z,312
2022-09-27T08:15:07.076Z,300
2022-09-27T08:17:20.672Z,301
2022-09-27T08:19:32.775Z,310
2022-09-27T08:21:40.865Z,310
2022-09-27T08:23:47.261Z,309
2022-09-27T08:25:56.381Z,310
2022-09-27T08:28:02.953Z,307
2022-09-27T08:30:13.412Z,308
2022-09-27T08:32:25.701Z,308
2022-09-27T08:34:32.600Z,307
2022-09-27T08:36:38.937Z,312
2022-09-27T08:38:45.175Z,312
2022-09-27T08:40:51.494Z,313
2022-09-27T08:42:59.750Z,315
2022-09-27T08:45:07.712Z,309
2022-09-27T08:47:16.449Z,315
2022-09-27T08:49:22.068Z,315
2022-09-27T08:51:27.947Z,308
2022-09-27T08:53:34.390Z,293
2022-09-27T08:55:43.952Z,313
2022-09-27T08:57:55.056Z,313
2022-09-27T09:00:08.784Z,313
2022-09-27T09:02:15.448Z,312
2022-09-27T09:04:24.839Z,313
2022-09-27T09:06:31.615Z,316
2022-09-27T09:08:52.861Z,313
2022-09-27T09:11:02.411Z,302
2022-09-27T09:13:08.828Z,309
2022-09-27T09:15:15.128Z,316
2022-09-27T09:17:22.827Z,312
2022-09-27T09:19:29.496Z,312
2022-09-27T09:21:37.819Z,313
2022-09-27T09:23:47.847Z,313
2022-09-27T09:25:54.499Z,310
2022-09-27T09:28:05.432Z,315
2022-09-27T09:30:15.004Z,314
2022-09-27T09:32:21.813Z,313
2022-09-27T09:34:28.906Z,312
2022-09-27T09:36:35.284Z,312
2022-09-27T09:38:41.512Z,312
2022-09-27T09:40:47.844Z,312
2022-09-27T09:42:54.982Z,315
2022-09-27T09:45:01.180Z,304
2022-09-27T09:47:07.441Z,313
2022-09-27T09:49:13.778Z,313
2022-09-27T09:51:21.500Z,313
2022-09-27T09:53:27.661Z,313
2022-09-27T09:55:33.786Z,315
2022-09-27T09:57:39.947Z,313
2022-09-27T09:59:46.489Z,315
2022-09-27T10:01:53.864Z,313
2022-09-27T10:04:00.486Z,313
2022-09-27T10:06:06.645Z,303
2022-09-27T10:08:13.941Z,313
2022-09-27T10:10:20.531Z,303
2022-09-27T10:12:30.137Z,313
2022-09-27T10:14:36.430Z,315
2022-09-27T10:16:42.876Z,313
2022-09-27T10:18:53.041Z,313
2022-09-27T10:20:59.248Z,314
2022-09-27T10:23:05.533Z,313
2022-09-27T10:25:11.890Z,312
2022-09-27T10:27:20.120Z,310
2022-09-27T10:29:27.235Z,310
2022-09-27T10:31:33.628Z,312
2022-09-27T10:33:42.866Z,312
2022-09-27T10:35:49.174Z,312
2022-09-27T10:37:55.997Z,312
2022-09-27T10:40:02.131Z,312
2022-09-27T10:42:08.110Z,312
2022-09-27T10:44:16.130Z,310
2022-09-27T10:46:22.953Z,312
2022-09-27T10:48:32.395Z,310
2022-09-27T10:50:59.959Z,310
2022-09-27T10:53:06.414Z,310
2022-09-27T10:55:12.629Z,310
2022-09-27T10:57:22.609Z,306
2022-09-27T10:59:28.984Z,310
2022-09-27T11:01:38.361Z,312
2022-09-27T11:03:47.758Z,312
2022-09-27T11:05:54.112Z,308
2022-09-27T11:08:00.566Z,312
2022-09-27T11:10:06.838Z,310
2022-09-27T11:12:14.631Z,312
2022-09-27T11:14:23.477Z,312
2022-09-27T11:16:29.929Z,312
2022-09-27T11:18:36.561Z,312
2022-09-27T11:20:43.131Z,312
2022-09-27T11:22:49.513Z,312
2022-09-27T11:25:08.203Z,312
2022-09-27T11:27:17.676Z,310
2022-09-27T11:29:24.073Z,310
2022-09-27T11:31:30.570Z,310
2022-09-27T11:33:52.908Z,310
2022-09-27T11:35:59.408Z,310
2022-09-27T11:38:05.986Z,310
2022-09-27T11:40:17.516Z,310
2022-09-27T11:42:27.668Z,310
2022-09-27T11:44:45.543Z,310
2022-09-27T11:46:56.287Z,310
2022-09-27T11:49:21.516Z,310
2022-09-27T11:51:32.435Z,310
2022-09-27T11:53:43.974Z,310
2022-09-27T11:55:54.142Z,312
2022-09-27T11:58:00.687Z,312
2022-09-27T12:00:08.349Z,310
2022-09-27T12:02:18.622Z,308
2022-09-27T12:04:26.900Z,310
2022-09-27T12:07:01.485Z,312
2022-09-27T12:09:16.067Z,308
2022-09-27T12:11:25.454Z,309
2022-09-27T12:13:36.001Z,301
2022-09-27T12:15:53.286Z,310
2022-09-27T12:18:07.487Z,310
2022-09-27T12:20:16.255Z,312
2022-09-27T12:23:05.394Z,310
2022-09-27T12:25:21.968Z,312
2022-09-27T12:27:28.093Z,310
2022-09-27T12:29:40.241Z,308
2022-09-27T12:31:49.485Z,310
2022-09-27T12:34:07.803Z,310
2022-09-27T12:36:13.945Z,312
2022-09-27T12:38:25.518Z,312
2022-09-27T12:40:34.588Z,309
2022-09-27T12:42:48.003Z,310
2022-09-27T12:45:04.690Z,310
2022-09-27T12:47:12.239Z,310
2022-09-27T12:49:22.008Z,312
2022-09-27T12:51:28.207Z,308
2022-09-27T12:53:37.909Z,312
2022-09-27T12:55:45.980Z,310
2022-09-27T12:57:54.870Z,309
2022-09-27T13:00:04.471Z,308
2022-09-27T13:02:13.585Z,308
2022-09-27T13:04:20.295Z,310
2022-09-27T13:06:31.614Z,313
2022-09-27T13:08:54.104Z,312
2022-09-27T13:11:04.356Z,312
2022-09-27T13:13:11.632Z,312
2022-09-27T13:15:18.288Z,312
2022-09-27T13:17:29.494Z,310
2022-09-27T13:19:36.205Z,310
2022-09-27T13:21:43.889Z,308
2022-09-27T13:23:56.254Z,309
2022-09-27T13:26:09.318Z,312
2022-09-27T13:28:17.242Z,312
2022-09-27T13:30:25.468Z,310
2022-09-27T13:32:32.635Z,312
2022-09-27T13:35:01.780Z,312
2022-09-27T13:37:14.828Z,302
2022-09-27T13:39:22.909Z,307
2022-09-27T13:41:30.176Z,302
2022-09-27T13:43:36.387Z,312
2022-09-27T13:45:45.707Z,309
2022-09-27T13:47:53.299Z,308
2022-09-27T13:49:59.713Z,308
2022-09-27T13:52:07.704Z,313
2022-09-27T13:54:13.881Z,308
2022-09-27T13:56:20.205Z,312
2022-09-27T13:58:27.762Z,313
2022-09-27T14:00:34.313Z,313
2022-09-27T14:02:40.693Z,307
2022-09-27T14:04:46.808Z,312
2022-09-27T14:06:53.562Z,312
2022-09-27T14:08:59.374Z,312
2022-09-27T14:11:05.516Z,303
2022-09-27T14:13:12.570Z,312
2022-09-27T14:15:18.983Z,310
2022-09-27T14:17:25.590Z,310
2022-09-27T14:19:32.457Z,307
2022-09-27T14:21:39.005Z,310
2022-09-27T14:23:45.345Z,312
2022-09-27T14:25:52.371Z,312
2022-09-27T14:27:59.342Z,297
2022-09-27T14:30:05.600Z,306
2022-09-27T14:32:12.146Z,308
2022-09-27T14:34:18.285Z,309
2022-09-27T14:36:26.668Z,306
2022-09-27T14:38:45.110Z,307
2022-09-27T14:40:52.195Z,310
2022-09-27T14:42:58.509Z,310
2022-09-27T14:45:04.997Z,306
2022-09-27T14:47:12.029Z,294
2022-09-27T14:49:18.948Z,302
2022-09-27T14:51:25.201Z,307
2022-09-27T14:53:31.965Z,310
2022-09-27T14:55:38.507Z,310
2022-09-27T14:57:44.906Z,306
2022-09-27T14:59:50.760Z,302
2022-09-27T15:01:56.672Z,302
2022-09-27T15:04:03.378Z,306
2022-09-27T15:06:10.458Z,303
2022-09-27T15:08:16.723Z,306
2022-09-27T15:10:25.786Z,303
2022-09-27T15:12:32.047Z,304
2022-09-27T15:14:38.673Z,303
2022-09-27T15:16:46.286Z,307
2022-09-27T15:18:58.761Z,310
2022-09-27T15:21:05.445Z,307
2022-09-27T15:23:11.750Z,306
2022-09-27T15:25:22.389Z,307
2022-09-27T15:27:29.153Z,306
2022-09-27T15:29:40.365Z,306
2022-09-27T15:31:46.724Z,306
2022-09-27T15:33:55.170Z,307
2022-09-27T15:36:04.134Z,306
2022-09-27T15:38:10.201Z,303
2022-09-27T15:40:17.979Z,298
2022-09-27T15:42:24.866Z,310
2022-09-27T15:44:37.566Z,310
2022-09-27T15:46:44.408Z,310
2022-09-27T15:48:53.975Z,310
2022-09-27T15:51:03.655Z,310
2022-09-27T15:53:10.322Z,310
2022-09-27T15:55:16.724Z,310
2022-09-27T15:57:22.908Z,310
2022-09-27T15:59:28.900Z,310
2022-09-27T16:01:35.924Z,310
2022-09-27T16:03:42.835Z,310
2022-09-27T16:05:49.890Z,310
2022-09-27T16:08:00.549Z,310
2022-09-27T16:10:07.114Z,310
2022-09-27T16:12:13.972Z,306
2022-09-27T16:14:21.002Z,309
2022-09-27T16:16:28.055Z,305
2022-09-27T16:18:40.686Z,309
2022-09-27T16:20:55.190Z,309
2022-09-27T16:23:03.164Z,303
2022-09-27T16:25:09.716Z,303
2022-09-27T16:27:16.557Z,304
2022-09-27T16:29:23.361Z,303
2022-09-27T16:31:30.073Z,306
2022-09-27T16:33:36.961Z,302
2022-09-27T16:35:43.882Z,306
2022-09-27T16:37:50.407Z,305
2022-09-27T16:39:57.295Z,303
2022-09-27T16:42:03.962Z,302
2022-09-27T16:44:10.597Z,303
2022-09-27T16:46:19.782Z,303
2022-09-27T16:48:26.398Z,303
2022-09-27T16:50:32.778Z,302
2022-09-27T16:52:39.518Z,302
2022-09-27T16:54:50.035Z,302
2022-09-27T16:56:58.298Z,302
2022-09-27T16:59:07.232Z,302
2022-09-27T17:01:16.853Z,301
2022-09-27T17:03:23.415Z,301
2022-09-27T17:05:40.098Z,301
2022-09-27T17:07:50.281Z,301
2022-09-27T17:09:59.746Z,301
2022-09-27T17:12:15.268Z,301
2022-09-27T17:14:24.864Z,300
2022-09-27T17:16:31.612Z,300
2022-09-27T17:18:38.578Z,300
2022-09-27T17:20:46.599Z,300
2022-09-27T17:22:53.885Z,298
2022-09-27T17:25:01.474Z,298
2022-09-27T17:27:07.901Z,301
2022-09-27T17:29:14.059Z,301
2022-09-27T17:31:21.006Z,300
2022-09-27T17:33:27.255Z,300
2022-09-27T17:35:33.937Z,298
2022-09-27T17:37:40.236Z,298
2022-09-27T17:39:46.794Z,298
2022-09-27T17:41:53.225Z,298
2022-09-27T17:44:00.264Z,297
2022-09-27T17:46:08.080Z,295
2022-09-27T17:48:16.739Z,294
2022-09-27T17:50:24.620Z,294
2022-09-27T17:52:31.482Z,300
2022-09-27T17:54:38.153Z,300
2022-09-27T17:56:46.006Z,300
2022-09-27T17:58:52.966Z,298
2022-09-27T18:01:04.253Z,300
2022-09-27T18:03:11.901Z,300
2022-09-27T18:05:19.340Z,298
2022-09-27T18:07:28.838Z,300
2022-09-27T18:09:37.794Z,294
2022-09-27T18:11:45.169Z,296
2022-09-27T18:13:54.462Z,297
2022-09-27T18:16:03.458Z,293
2022-09-27T18:18:11.272Z,296
2022-09-27T18:20:18.263Z,296
2022-09-27T18:22:25.421Z,290
2022-09-27T18:24:32.977Z,291
2022-09-27T18:26:41.313Z,291
2022-09-27T18:28:48.471Z,291
2022-09-27T18:33:59.845Z,291
2022-09-27T18:36:08.686Z,291
2022-09-27T18:38:16.626Z,291
2022-09-27T18:40:58.391Z,290
2022-09-27T18:43:07.327Z,289
2022-09-27T18:45:15.687Z,289
2022-09-27T18:47:24.572Z,294
2022-09-27T18:49:37.972Z,294
2022-09-27T18:51:50.628Z,293
2022-09-27T18:53:59.635Z,294
2022-09-27T18:56:13.867Z,296
2022-09-27T18:58:21.539Z,294
2022-09-27T19:00:29.818Z,294
2022-09-27T19:02:38.281Z,290
2022-09-27T19:04:46.075Z,290
2022-09-27T19:06:53.824Z,297
2022-09-27T19:09:00.512Z,289
2022-09-27T19:11:10.575Z,295
2022-09-27T19:13:17.922Z,294
2022-09-27T19:15:29.901Z,295
2022-09-27T19:17:39.099Z,296
2022-09-27T19:19:48.178Z,293
2022-09-27T19:21:57.216Z,296
2022-09-27T19:24:14.151Z,296
2022-09-27T19:26:26.307Z,296
2022-09-27T19:28:37.163Z,295
2022-09-27T19:30:45.207Z,295
2022-09-27T19:32:58.604Z,295
2022-09-27T19:35:07.313Z,296
2022-09-27T19:37:22.621Z,289
2022-09-27T19:39:31.355Z,290
2022-09-27T19:41:41.882Z,290
2022-09-27T19:43:48.688Z,290
2022-09-27T19:45:59.763Z,294
2022-09-27T19:48:08.671Z,294
2022-09-27T19:50:16.741Z,290
2022-09-27T19:52:27.760Z,288
2022-09-27T19:54:34.834Z,294
2022-09-27T19:56:42.365Z,291
2022-09-27T19:58:53.648Z,295
2022-09-27T20:01:06.271Z,296
2022-09-27T20:03:16.987Z,296
2022-09-27T20:05:26.457Z,295
2022-09-27T20:07:38.862Z,289
2022-09-27T20:09:46.068Z,289
2022-09-27T20:11:53.836Z,288
2022-09-27T20:14:04.166Z,288
2022-09-27T20:16:11.936Z,289
2022-09-27T20:18:19.996Z,288
2022-09-27T20:20:28.512Z,286
2022-09-27T20:22:35.316Z,286
2022-09-27T20:24:42.947Z,294
2022-09-27T20:26:49.490Z,294
2022-09-27T20:28:57.416Z,294
2022-09-27T20:31:04.335Z,294
2022-09-27T20:33:10.770Z,294
2022-09-27T20:35:17.536Z,294
2022-09-27T20:37:25.477Z,293
2022-09-27T20:39:33.054Z,293
2022-09-27T20:41:39.280Z,293
2022-09-27T20:43:45.737Z,293
2022-09-27T20:45:52.398Z,293
2022-09-27T20:47:58.690Z,293
2022-09-27T20:50:04.848Z,293
2022-09-27T20:52:11.407Z,293
2022-09-27T20:54:19.164Z,293
2022-09-27T20:56:25.760Z,293
2022-09-27T20:58:32.140Z,283
2022-09-27T21:00:38.874Z,291
2022-09-27T21:02:45.417Z,288
2022-09-27T21:04:53.328Z,286
2022-09-27T21:06:59.529Z,291
2022-09-27T21:09:05.662Z,280
2022-09-27T21:11:13.084Z,291
2022-09-27T21:13:19.906Z,285
2022-09-27T21:15:27.334Z,286
2022-09-27T21:17:35.359Z,288
2022-09-27T21:19:41.481Z,291
2022-09-27T21:21:47.690Z,289
2022-09-27T21:23:54.211Z,286
2022-09-27T21:26:00.724Z,286
2022-09-27T21:28:07.833Z,289
2022-09-27T21:30:14.142Z,289
2022-09-27T21:32:21.037Z,289
2022-09-27T21:34:27.166Z,286
2022-09-27T21:36:34.550Z,288
2022-09-27T21:38:41.116Z,282
2022-09-27T21:40:47.583Z,282
2022-09-27T21:42:59.780Z,282
2022-09-27T21:45:06.006Z,281
2022-09-27T21:47:12.077Z,281
2022-09-27T21:49:18.421Z,281
2022-09-27T21:51:24.519Z,281
2022-09-27T21:53:30.244Z,281
2022-09-27T21:55:36.523Z,281
2022-09-27T21:57:42.257Z,281
2022-09-27T21:59:47.869Z,281
2022-09-27T22:01:53.997Z,281
2022-09-27T22:03:59.476Z,281
2022-09-27T22:06:11.014Z,282
2022-09-27T22:08:16.573Z,281
2022-09-27T22:10:22.271Z,282
2022-09-27T22:12:28.118Z,282
2022-09-27T22:14:33.308Z,282
2022-09-27T22:16:39.172Z,282
2022-09-27T22:18:44.626Z,282
2022-09-27T22:20:50.380Z,282
2022-09-27T22:22:56.170Z,282
2022-09-27T22:25:01.473Z,282
2022-09-27T22:27:07.780Z,282
2022-09-27T22:29:13.615Z,282
2022-09-27T22:31:20.014Z,282
2022-09-27T22:33:25.674Z,282
2022-09-27T22:35:30.845Z,282
2022-09-27T22:37:36.330Z,281
2022-09-27T22:39:41.686Z,282
2022-09-27T22:41:47.172Z,282
2022-09-27T22:43:52.472Z,281
2022-09-27T22:45:58.213Z,282
2022-09-27T22:48:03.715Z,281
2022-09-27T22:50:09.263Z,281
2022-09-27T22:52:14.527Z,281
2022-09-27T22:54:19.917Z,281
2022-09-27T22:56:25.625Z,281
2022-09-27T22:58:30.940Z,281
2022-09-27T23:00:36.409Z,281
2022-09-27T23:02:41.723Z,281
2022-09-27T23:04:47.537Z,281
2022-09-27T23:06:52.952Z,281
2022-09-27T23:08:58.285Z,281
2022-09-27T23:11:04.745Z,281
2022-09-27T23:13:10.094Z,281
2022-09-27T23:15:15.416Z,281
2022-09-27T23:17:20.807Z,281
2022-09-27T23:19:26.627Z,281
2022-09-27T23:21:32.087Z,281
2022-09-27T23:23:37.775Z,281
2022-09-27T23:25:42.926Z,281
2022-09-27T23:27:48.218Z,281
2022-09-27T23:29:53.413Z,281
2022-09-27T23:31:59.268Z,281
2022-09-27T23:34:04.676Z,281
2022-09-27T23:36:11.125Z,281
2022-09-27T23:38:16.224Z,281
2022-09-27T23:40:21.726Z,281
2022-09-27T23:42:27.015Z,281
2022-09-27T23:44:32.559Z,281
2022-09-27T23:46:38.146Z,281
2022-09-27T23:48:43.622Z,281
2022-09-27T23:50:49.230Z,281
2022-09-27T23:52:54.587Z,281
2022-09-27T23:54:59.891Z,281
2022-09-27T23:57:05.268Z,281
2022-09-27T23:59:10.781Z,280
